AirNav   Air Wisconsin pilot careers
 
 1513 users online  

VA30 Berryvale Airport
Culpeper, Virginia, USA

GOING TO CULPEPER?


FAA INFORMATION EFFECTIVE 19 JULY 2018

Location

FAA Identifier: VA30
Lat/Long: 38-31-36.4470N / 077-57-22.9860W
38-31.607450N / 077-57.383100W
38.5267908 / -77.9563850
(estimated)
Elevation: 470 ft. / 143 m (estimated)
Variation: 09W (1985)
From city: 4 miles NE of CULPEPER, VA
Time zone: UTC -4 (UTC -5 during Standard Time)
Zip code: 22701

Airport Operations

Airport use: Private use. Permission required prior to landing
Activation date: 09/1976
Control tower: no
ARTCC: WASHINGTON CENTER
FSS: LEESBURG FLIGHT SERVICE STATION
Attendance: UNATNDD
Wind indicator: yes
Segmented circle: no

Airport Communications

WX AWOS-3 at CJR (5 nm E): 119.325 (540-727-0523)
WX AWOS-3 at HWY (12 nm E): 120.350 (540-788-4078)
WX AWOS-3 at OMH (17 nm S): 118.075 (540-672-0505)

Nearby radio navigation aids

VOR radial/distance  VOR name  Freq  Var
CSNr218/8.1CASANOVA VORTAC116.3006W
LDNr155/22.9LINDEN VORTAC114.3006W
BRVr301/30.6BROOKE VORTAC114.5009W
GVEr023/32.2GORDONSVILLE VORTAC115.6006W
AMLr231/33.5ARMEL VOR/DME113.5008W

 
NDB name  Hdg/Dist  Freq  Var  ID
NAILR341/5.035110WMSQ -- ... --.-
CAVERNS122/26.324509WLUA .-.. ..- .-
SHANNON313/28.523710WEZF . --.. ..-.

Airport Services

Runway Information

Runway 2/20

Dimensions: 2300 x 100 ft. / 701 x 30 m
Surface: turf
RUNWAY 2  RUNWAY 20
Traffic pattern: leftleft

Airport Ownership and Management from official FAA records

Ownership: Privately-owned
Owner: BERRYVALE PROP OWNERS ASSN
16131 BERRYVALE LN
CULPEPER, VA 22701-9774
Phone 540-825-1753
Manager: MIKE TRUSCHEL
16135 BERRYVALE LN
CULPEPER, VA 22701-5530
Phone 540-717-2701

Airport Operational Statistics

Aircraft based on the field: 8
Single engine airplanes: 8
    

Instrument Procedures

There are no published instrument procedures at VA30.

Some nearby airports with instrument procedures:

KCJR - Culpeper Regional Airport (5 nm E)
KHWY - Warrenton-Fauquier Airport (12 nm E)
KOMH - Orange County Airport (17 nm S)
KHEF - Manassas Regional Airport/Harry P. Davis Field (24 nm NE)
KGVE - Gordonsville Municipal Airport (24 nm SW)
 
Loc | Ops | Rwys | IFR | FBO | Links
Com | Nav | Svcs | Stats | Notes


 
Area around VA30 (Berryvale Airport)
 
Road maps at: MapQuest Bing Google
 
Aerial photo
WARNING: Photo may not be current or correct
Aerial photo of VA30 (Berryvale Airport)
Photo taken 09-Jun-2012
Looking south.

Do you have a better or more recent aerial photo of Berryvale Airport that you would like to share? If so, please send us your photo.

 
Sectional chart

 
Airport distance calculator
Flying to Berryvale Airport? Find the distance to fly.

From to VA30

Sunrise and sunset
Times for 20-Jul-2018
 Local
(UTC-4)
 Zulu
(UTC)
Morning civil twilight05:3409:34
Sunrise06:0510:05
Sunset20:3200:32
Evening civil twilight21:0201:02

Current date and time
Zulu (UTC)  20-Jul-2018 14:47:30
Local (UTC-4)  20-Jul-2018 10:47:30
 
METAR
KCJR 
8nm W 
201435Z AUTO 00000KT 10SM BKN021 26/20 A3013 RMK AO2 T02610198
KHWY 
12nm E 
201435Z AUTO 19004KT 10SM SCT021 26/19 A3012 RMK AO2 T02600186
KOMH 
17nm S 
201435Z AUTO 15003KT 10SM SCT021 24/18 A3013 RMK AO2
TAF
KNYG 
32nm E 
2009/2109 VRB06KT 9999 FEW040 SCT060 QNH3008INS BECMG 2016/2018 19010KT 9999 FEW060 QNH3002INS BECMG 2106/2108 19010KT 9999 FEW030 BKN060 QNH2998INS T30/2021Z T20/2109Z
KCHO 
33nm SW 
201132Z 2012/2112 00000KT P6SM FEW060 SCT250 FM201600 16006KT P6SM SCT060 FM210000 12006KT P6SM BKN060 FM210700 VRB03KT P6SM BKN015 FM210900 VRB03KT P6SM OVC008
KIAD 
34nm NE 
201132Z 2012/2118 VRB03KT P6SM FEW060 FM201600 16007KT P6SM SCT060 FM210600 12005KT P6SM -SHRA BKN060 FM211100 09006KT P6SM -SHRA BKN025
KDAA 
39nm E 
200900Z 2009/2115 16009KT 9999 FEW100 QNH2995INS BECMG 2114/2115 09012KT 9999 SCT030 BKN050 QNH2993INS TX29/2020Z TN17/2010Z
NOTAMs
Click for the latest NOTAMs
NOTAMs are issued by the DoD/FAA and will open in a separate window not controlled by AirNav.

 

 
 

Would you like to see your business listed on this page?

 If your business provides an interesting product or service to pilots, flight crews, aircraft, or users of the Berryvale Airport, you should consider listing it here.  To start the listing process, click on the button below
 
Add a business
 

Other Pages about Berryvale Airport

Update a link
 
Copyright © AirNav, LLC. All rights reserved. Privacy Policy  Contact